Time;durP1;ratioP1;P1;durP2;ratioP2;P2;SDS_P1;SDS_P2;PMS_P1;PMS_P2;Temp;Humidity;BMP_temperature;BMP_pressure;BME280_temperature;BME280_humidity;BME280_pressure;Samples;Min_cycle;Max_cycle;Signal;HPM_P1;HPM_P2
2022/12/04 00:00:15;;;;;;;13.30;7.93;;;5.10;69.50;;;;;;5052615;28;20523;-72
2022/12/04 00:02:41;;;;;;;13.32;7.93;;;5.10;69.60;;;;;;5052584;28;20025;-73
2022/12/04 00:05:08;;;;;;;18.70;8.10;;;5.20;69.60;;;;;;5053159;28;20461;-73
2022/12/04 00:07:34;;;;;;;12.73;6.70;;;5.20;69.60;;;;;;5053254;28;20079;-73
2022/12/04 00:10:00;;;;;;;12.30;7.18;;;5.30;69.60;;;;;;5051644;28;20025;-73
2022/12/04 00:12:26;;;;;;;11.90;6.97;;;5.30;69.50;;;;;;5052917;28;20527;-73
2022/12/04 00:14:52;;;;;;;12.25;7.28;;;5.30;69.30;;;;;;5034929;28;20084;-73
2022/12/04 00:17:18;;;;;;;11.82;6.95;;;5.30;69.20;;;;;;5052553;28;20388;-73
2022/12/04 00:19:44;;;;;;;10.90;7.10;;;5.30;69.20;;;;;;5052490;28;20025;-73
2022/12/04 00:22:12;;;;;;;11.98;7.45;;;5.30;69.10;;;;;;5052510;28;20155;-72
2022/12/04 00:24:38;;;;;;;14.60;8.45;;;5.30;69.00;;;;;;5035384;28;20068;-72
2022/12/04 00:27:04;;;;;;;14.60;8.15;;;5.30;69.00;;;;;;5038495;28;20126;-73
2022/12/04 00:29:30;;;;;;;16.67;8.10;;;5.30;69.20;;;;;;5056427;28;20021;-73
2022/12/04 00:31:55;;;;;;;12.35;7.75;;;5.30;69.40;;;;;;5055466;28;20025;-74
2022/12/04 00:34:24;;;;;;;17.15;9.15;;;5.30;69.50;;;;;;5037962;28;20037;-73
2022/12/04 00:36:50;;;;;;;14.60;8.00;;;5.30;69.60;;;;;;5056269;28;20025;-73
2022/12/04 00:39:16;;;;;;;15.77;7.97;;;5.30;69.90;;;;;;5038384;28;20032;-73
2022/12/04 00:41:42;;;;;;;16.42;8.15;;;5.30;70.00;;;;;;5038239;28;20033;-72
2022/12/04 00:44:08;;;;;;;16.15;8.63;;;5.30;70.10;;;;;;5038229;28;20043;-74
2022/12/04 00:46:36;;;;;;;14.80;8.57;;;5.30;70.10;;;;;;5038217;28;20112;-73
2022/12/04 00:49:02;;;;;;;17.35;9.35;;;5.40;70.10;;;;;;5055693;28;20116;-73
2022/12/04 00:51:28;;;;;;;18.20;9.85;;;5.40;70.20;;;;;;5055968;28;20132;-73
2022/12/04 00:53:55;;;;;;;18.60;10.50;;;5.30;70.30;;;;;;5055642;28;20028;-73
2022/12/04 00:56:26;;;;;;;19.60;10.25;;;5.40;70.60;;;;;;5038052;28;20025;-73
2022/12/04 00:58:55;;;;;;;18.70;10.57;;;5.40;70.80;;;;;;5055913;28;20075;-73
2022/12/04 01:01:23;;;;;;;17.38;9.48;;;5.50;71.00;;;;;;5074008;28;20086;-73
2022/12/04 01:03:49;;;;;;;19.13;9.73;;;5.50;70.90;;;;;;5075758;28;20035;-72
2022/12/04 01:06:21;;;;;;;18.13;9.18;;;5.50;70.70;;;;;;5075503;28;20025;-73
2022/12/04 01:08:48;;;;;;;15.50;8.15;;;5.50;71.30;;;;;;5057665;28;20047;-72
2022/12/04 01:11:15;;;;;;;18.65;9.13;;;5.50;70.60;;;;;;5057691;28;20020;-73
2022/12/04 01:13:41;;;;;;;16.42;8.45;;;5.60;70.70;;;;;;5075388;28;20059;-73
2022/12/04 01:16:06;;;;;;;24.70;9.32;;;5.60;70.80;;;;;;5075895;28;20441;-73
2022/12/04 01:18:35;;;;;;;16.55;8.50;;;5.60;71.00;;;;;;5075551;28;20066;-73
2022/12/04 01:21:01;;;;;;;18.58;9.13;;;5.60;71.10;;;;;;5075473;28;20029;-73
2022/12/04 01:23:27;;;;;;;13.82;8.00;;;5.70;71.00;;;;;;5075440;28;20043;-72
2022/12/04 01:25:56;;;;;;;13.07;7.20;;;5.70;70.80;;;;;;5057457;28;20024;-72
2022/12/04 01:28:23;;;;;;;13.38;7.85;;;5.70;70.50;;;;;;5057100;28;20309;-73
2022/12/04 01:31:04;;;;;;;12.57;7.53;;;5.70;70.30;;;;;;5075631;28;20020;-73
2022/12/04 01:33:31;;;;;;;10.68;6.68;;;5.80;70.30;;;;;;5055234;28;20032;-73
2022/12/04 01:35:59;;;;;;;13.23;6.72;;;5.70;70.10;;;;;;5054379;28;20346;-72
2022/12/04 01:38:26;;;;;;;11.07;6.35;;;5.80;70.00;;;;;;5054713;28;20059;-72
2022/12/04 01:40:53;;;;;;;13.07;7.25;;;5.80;69.90;;;;;;5054872;28;20160;-72
2022/12/04 01:43:19;;;;;;;13.30;7.25;;;5.80;70.00;;;;;;5054728;28;20441;-72
2022/12/04 01:45:54;;;;;;;12.80;7.50;;;5.80;70.10;;;;;;5054956;28;20051;-72
2022/12/04 01:48:33;;;;;;;16.80;8.73;;;5.80;70.20;;;;;;5055024;28;20140;-72
2022/12/04 01:51:14;;;;;;;16.50;8.50;;;5.80;70.40;;;;;;5054850;28;20044;-72
2022/12/04 01:53:53;;;;;;;16.13;8.20;;;5.80;70.70;;;;;;5054897;28;20052;-73
2022/12/04 01:56:25;;;;;;;19.85;8.98;;;5.80;70.90;;;;;;5054879;28;20369;-72
2022/12/04 01:58:56;;;;;;;17.90;9.52;;;5.80;70.90;;;;;;5054896;28;20067;-72
2022/12/04 02:01:22;;;;;;;16.55;8.98;;;5.80;71.00;;;;;;5036586;28;20057;-72
2022/12/04 02:03:53;;;;;;;19.85;9.18;;;5.80;71.20;;;;;;5053210;28;20362;-73
2022/12/04 02:06:19;;;;;;;21.45;10.43;;;5.80;71.40;;;;;;5054536;28;20377;-73
2022/12/04 02:08:49;;;;;;;16.88;8.18;;;5.80;71.60;;;;;;5036623;28;20029;-73
2022/12/04 02:11:50;;;;;;;16.23;8.68;;;5.90;71.80;;;;;;5036586;28;20021;-73
2022/12/04 02:14:24;;;;;;;17.52;8.95;;;5.90;71.50;;;;;;5054379;28;20032;-72
2022/12/04 02:16:56;;;;;;;;;;;5.90;71.30;;;;;;5036898;28;20354;-73
2022/12/04 02:19:40;;;;;;;19.88;10.30;;;6.00;71.00;;;;;;5036417;28;20250;-73
2022/12/04 02:22:20;;;;;;;23.30;9.60;;;6.00;71.30;;;;;;5054239;28;20056;-73
2022/12/04 02:24:58;;;;;;;22.67;11.45;;;6.00;71.60;;;;;;5036362;28;20045;-72
2022/12/04 02:27:54;;;;;;;27.27;11.77;;;6.00;71.70;;;;;;5054197;28;20025;-73
2022/12/04 02:30:20;;;;;;;22.45;10.85;;;6.00;71.80;;;;;;5036230;28;20380;-73
2022/12/04 02:33:09;;;;;;;24.67;11.25;;;6.00;71.90;;;;;;5068778;28;20036;-73
2022/12/04 02:35:43;;;;;;;24.90;11.13;;;6.10;72.90;;;;;;5056016;28;20036;-73
2022/12/04 02:38:26;;;;;;;22.00;10.75;;;6.10;72.00;;;;;;5056054;28;20028;-72
2022/12/04 02:40:58;;;;;;;22.20;11.25;;;6.10;71.80;;;;;;5073661;28;20032;-73
2022/12/04 02:43:38;;;;;;;25.63;12.38;;;6.10;71.60;;;;;;5073764;28;20385;-73
2022/12/04 02:46:15;;;;;;;19.83;10.32;;;6.10;71.60;;;;;;5073838;28;20043;-73
2022/12/04 02:48:44;;;;;;;28.98;13.63;;;6.10;71.60;;;;;;5073648;28;20125;-73
2022/12/04 02:51:14;;;;;;;25.23;11.85;;;6.10;71.50;;;;;;5055719;28;20020;-73
2022/12/04 02:53:47;;;;;;;26.48;12.13;;;6.10;71.60;;;;;;5055839;28;20028;-73
2022/12/04 02:56:21;;;;;;;20.63;10.95;;;6.10;71.60;;;;;;5056006;28;20031;-73
2022/12/04 02:58:55;;;;;;;26.02;11.50;;;6.20;71.80;;;;;;5055619;28;20035;-73
2022/12/04 03:01:26;;;;;;;22.33;11.05;;;6.20;71.90;;;;;;5071199;28;20044;-73
2022/12/04 03:03:59;;;;;;;21.58;10.05;;;6.30;72.10;;;;;;5035664;28;20041;-73
2022/12/04 03:06:28;;;;;;;24.17;11.32;;;6.30;72.10;;;;;;5053699;28;20100;-73
2022/12/04 03:09:11;;;;;;;20.95;10.38;;;6.30;71.80;;;;;;5053183;28;20112;-72
2022/12/04 03:11:39;;;;;;;29.25;12.70;;;6.30;71.50;;;;;;5053064;28;20055;-72
2022/12/04 03:14:19;;;;;;;27.67;12.15;;;6.30;71.40;;;;;;5053082;28;20079;-73
2022/12/04 03:16:57;;;;;;;24.48;11.10;;;6.40;71.80;;;;;;5053448;28;20430;-72
2022/12/04 03:19:26;;;;;;;27.00;11.95;;;6.40;72.00;;;;;;5053280;28;20361;-72
2022/12/04 03:22:01;;;;;;;27.95;12.55;;;6.40;72.10;;;;;;5052960;28;20025;-72
2022/12/04 03:24:33;;;;;;;31.38;12.93;;;6.40;72.10;;;;;;5053210;28;20033;-73
2022/12/04 03:27:25;;;;;;;29.92;12.10;;;6.50;72.40;;;;;;5052979;28;20071;-72
2022/12/04 03:30:00;;;;;;;26.73;12.38;;;6.50;72.60;;;;;;5053268;28;20374;-72
2022/12/04 03:32:28;;;;;;;31.23;13.35;;;6.50;72.60;;;;;;5064144;28;20024;-73
2022/12/04 03:35:01;;;;;;;25.48;12.75;;;6.60;72.70;;;;;;5073210;28;20122;-73
2022/12/04 03:37:50;;;;;;;24.58;11.70;;;6.60;72.70;;;;;;5055332;28;20028;-73
2022/12/04 03:40:24;;;;;;;23.65;11.00;;;6.60;72.70;;;;;;5073159;28;20017;-72
2022/12/04 03:42:59;;;;;;;22.48;10.75;;;6.60;72.30;;;;;;5072985;28;20021;-73
2022/12/04 03:45:30;;;;;;;19.80;9.88;;;6.60;71.90;;;;;;5073095;28;20071;-73
2022/12/04 03:48:15;;;;;;;23.55;10.88;;;6.60;71.50;;;;;;5055156;28;20031;-73
2022/12/04 03:51:07;;;;;;;23.90;12.15;;;6.60;71.10;;;;;;5073137;28;20017;-73
2022/12/04 03:53:48;;;;;;;24.83;12.88;;;6.60;71.10;;;;;;5073108;28;20029;-73
2022/12/04 03:56:23;;;;;;;25.60;13.45;;;6.60;71.90;;;;;;5073036;28;20028;-73
2022/12/04 03:58:59;;;;;;;26.23;14.48;;;6.50;71.30;;;;;;5072779;28;20033;-73
2022/12/04 04:01:31;;;;;;;29.27;14.25;;;6.50;71.30;;;;;;5058212;28;20044;-73
2022/12/04 04:04:02;;;;;;;29.25;14.13;;;6.50;71.40;;;;;;5076523;28;20416;-73
2022/12/04 04:06:37;;;;;;;28.90;15.73;;;6.50;71.40;;;;;;5058867;28;20050;-73
2022/12/04 04:09:17;;;;;;;34.78;16.90;;;6.50;71.40;;;;;;5058861;28;20032;-73
2022/12/04 04:11:54;;;;;;;31.88;17.23;;;6.50;71.40;;;;;;5076688;28;20032;-73
2022/12/04 04:25:57;;;;;;;23.23;12.82;;;6.50;72.60;;;;;;5076501;28;20023;-73
2022/12/04 04:28:38;;;;;;;24.13;13.02;;;6.50;72.50;;;;;;5075347;28;20043;-73
2022/12/04 04:31:24;;;;;;;22.17;11.88;;;6.50;72.60;;;;;;5076034;28;20488;-73
2022/12/04 04:34:10;;;;;;;26.17;14.65;;;6.60;72.90;;;;;;5058666;28;20082;-73
2022/12/04 04:36:43;;;;;;;26.20;13.40;;;6.70;72.90;;;;;;5075960;28;20021;-72
2022/12/04 04:39:34;;;;;;;24.27;12.60;;;6.70;72.70;;;;;;5075978;28;20032;-73
2022/12/04 04:42:18;;;;;;;19.13;11.52;;;6.70;72.60;;;;;;5075913;28;20399;-73
2022/12/04 04:44:58;;;;;;;;;;;6.80;72.50;;;;;;5076497;28;20383;-72
2022/12/04 04:47:44;;;;;;;21.10;11.68;;;6.90;72.20;;;;;;5076113;28;19936;-73
2022/12/04 04:50:15;;;;;;;20.23;12.00;;;6.90;72.20;;;;;;5076087;28;20078;-73
2022/12/04 04:52:48;;;;;;;18.13;10.30;;;6.90;72.30;;;;;;5058066;28;20062;-73
2022/12/04 04:55:16;;;;;;;25.23;13.10;;;6.90;72.40;;;;;;5075917;28;20028;-73
2022/12/04 04:57:45;;;;;;;22.83;13.48;;;7.00;72.80;;;;;;5062115;28;20024;-73
2022/12/04 05:00:22;;;;;;;28.30;14.40;;;7.00;73.10;;;;;;5055393;28;20389;-73
2022/12/04 05:02:51;;;;;;;21.55;12.75;;;7.10;73.60;;;;;;5055457;28;20052;-73
2022/12/04 05:05:19;;;;;;;22.02;12.10;;;7.20;74.00;;;;;;5055800;28;20021;-73
2022/12/04 05:07:45;;;;;;;20.17;11.30;;;7.30;74.30;;;;;;5037827;28;20029;-72
2022/12/04 05:10:14;;;;;;;21.58;12.27;;;7.40;74.40;;;;;;5037416;28;20035;-73
2022/12/04 05:12:45;;;;;;;19.00;10.68;;;7.50;74.50;;;;;;5037765;28;20025;-73
2022/12/04 05:15:11;;;;;;;21.73;11.15;;;7.60;74.40;;;;;;5055696;28;20021;-73
2022/12/04 05:17:37;;;;;;;13.70;9.05;;;7.70;74.40;;;;;;5055589;28;20095;-73
2022/12/04 05:20:06;;;;;;;15.93;8.95;;;7.80;74.50;;;;;;5055310;28;20100;-73
2022/12/04 05:22:36;;;;;;;12.63;7.72;;;7.90;74.40;;;;;;5055341;28;20024;-73
2022/12/04 05:25:03;;;;;;;9.35;6.90;;;7.90;74.10;;;;;;5055258;28;20492;-73
2022/12/04 05:27:32;;;;;;;10.73;6.63;;;8.00;73.90;;;;;;5055514;28;20041;-73
2022/12/04 05:30:03;;;;;;;9.35;6.20;;;8.10;73.60;;;;;;5055528;28;20104;-73
2022/12/04 05:32:31;;;;;;;9.00;6.10;;;8.10;73.40;;;;;;5055164;28;20036;-73
2022/12/04 05:35:00;;;;;;;9.85;6.53;;;8.20;73.30;;;;;;5037456;28;20219;-73
2022/12/04 05:37:29;;;;;;;9.35;6.32;;;8.20;73.20;;;;;;5037474;28;20029;-73
2022/12/04 05:39:55;;;;;;;10.00;6.63;;;8.30;73.30;;;;;;5055272;28;20488;-73
2022/12/04 05:42:23;;;;;;;8.43;5.60;;;8.30;73.20;;;;;;5037300;28;20021;-73
2022/12/04 05:44:49;;;;;;;7.70;5.80;;;8.40;73.00;;;;;;5054739;28;20033;-73
2022/12/04 05:47:15;;;;;;;9.45;6.38;;;8.40;72.80;;;;;;5055146;28;20021;-73
2022/12/04 05:49:47;;;;;;;9.77;6.60;;;8.40;72.80;;;;;;5054859;28;20048;-73
2022/12/04 05:52:16;;;;;;;9.52;6.32;;;8.50;72.90;;;;;;5055158;28;20029;-73
2022/12/04 05:54:44;;;;;;;10.05;7.03;;;8.60;72.90;;;;;;5054713;28;20028;-73
2022/12/04 05:57:12;;;;;;;10.38;6.78;;;8.60;72.80;;;;;;5037160;28;20036;-72
2022/12/04 05:59:40;;;;;;;9.32;6.38;;;8.60;72.60;;;;;;5054495;28;20049;-73
2022/12/04 06:02:09;;;;;;;10.93;6.65;;;8.70;72.60;;;;;;5054874;28;20048;-73
2022/12/04 06:04:36;;;;;;;10.48;6.18;;;8.70;72.30;;;;;;5054746;28;20037;-73
2022/12/04 06:07:07;;;;;;;8.95;6.10;;;8.70;72.00;;;;;;5054469;28;20147;-73
2022/12/04 06:09:35;;;;;;;9.43;6.63;;;8.70;71.80;;;;;;5054495;28;20025;-73
2022/12/04 06:12:04;;;;;;;8.30;6.13;;;8.80;71.70;;;;;;5053429;28;20371;-73
2022/12/04 06:14:36;;;;;;;9.93;6.60;;;8.70;71.50;;;;;;5054802;28;20040;-73
2022/12/04 06:17:05;;;;;;;9.00;5.88;;;8.80;71.50;;;;;;5054653;28;20365;-73
2022/12/04 06:19:36;;;;;;;11.50;7.05;;;8.80;71.40;;;;;;5054213;28;20083;-73
2022/12/04 06:22:07;;;;;;;9.60;6.70;;;8.80;71.30;;;;;;5053753;28;20029;-73
2022/12/04 06:24:38;;;;;;;9.40;7.00;;;8.80;71.20;;;;;;5054347;28;20036;-73
2022/12/04 06:27:04;;;;;;;11.80;8.02;;;8.80;71.30;;;;;;5054487;28;20036;-73
2022/12/04 06:29:31;;;;;;;11.23;7.95;;;8.80;71.50;;;;;;5054355;28;20032;-73
2022/12/04 06:32:02;;;;;;;13.35;7.95;;;8.80;71.70;;;;;;5061566;28;20025;-73
2022/12/04 06:34:34;;;;;;;10.65;7.78;;;8.80;71.70;;;;;;5056337;28;20024;-73
2022/12/04 06:37:02;;;;;;;11.57;7.85;;;8.80;71.80;;;;;;5056269;28;20031;-73
2022/12/04 06:39:33;;;;;;;12.55;8.23;;;8.80;71.70;;;;;;5073810;28;20526;-72
2022/12/04 06:41:59;;;;;;;13.15;8.90;;;8.80;71.50;;;;;;5073253;28;20032;-73
2022/12/04 06:44:25;;;;;;;13.82;9.38;;;8.90;71.40;;;;;;5073978;28;20032;-73
2022/12/04 06:46:53;;;;;;;13.15;9.18;;;8.90;71.30;;;;;;5074015;28;20101;-73
2022/12/04 06:49:25;;;;;;;13.85;9.15;;;8.90;71.30;;;;;;5055681;28;20035;-73
2022/12/04 06:51:51;;;;;;;17.13;11.18;;;8.90;71.20;;;;;;5073991;28;20021;-73
2022/12/04 06:54:16;;;;;;;15.45;10.48;;;8.90;71.10;;;;;;5055771;28;20029;-72
2022/12/04 06:56:45;;;;;;;16.77;10.63;;;9.00;71.30;;;;;;5068661;28;20033;-73
2022/12/04 06:59:11;;;;;;;18.20;11.90;;;9.00;71.30;;;;;;5073274;28;20036;-73
2022/12/04 07:01:36;;;;;;;19.70;12.88;;;9.00;71.20;;;;;;5055917;28;20035;-73
2022/12/04 07:04:06;;;;;;;18.48;12.57;;;9.10;71.00;;;;;;5055407;28;20028;-73
2022/12/04 07:06:44;;;;;;;21.10;13.48;;;9.10;70.90;;;;;;5055765;28;20361;-73
2022/12/04 07:09:13;;;;;;;18.58;12.52;;;9.10;70.80;;;;;;5072720;28;20016;-73
2022/12/04 07:11:44;;;;;;;23.67;13.85;;;9.20;70.90;;;;;;5053306;28;20472;-73
2022/12/04 07:14:12;;;;;;;29.33;15.93;;;9.20;70.70;;;;;;5055516;28;20028;-73
2022/12/04 07:16:39;;;;;;;25.58;15.80;;;9.30;70.70;;;;;;5055574;28;20025;-73
2022/12/04 07:19:05;;;;;;;20.67;13.90;;;9.40;70.60;;;;;;5073546;28;20372;-73
2022/12/04 07:21:37;;;;;;;20.10;12.57;;;9.50;70.40;;;;;;5073566;28;20029;-73
2022/12/04 07:24:08;;;;;;;15.70;10.95;;;9.50;70.30;;;;;;5073497;28;20033;-73
2022/12/04 07:26:39;;;;;;;14.65;10.55;;;9.60;70.20;;;;;;5064892;28;20017;-73
2022/12/04 07:29:10;;;;;;;15.18;10.15;;;9.70;70.10;;;;;;5035887;28;20036;-73
2022/12/04 07:31:43;;;;;;;18.15;12.50;;;9.80;70.10;;;;;;5052043;28;20029;-73
2022/12/04 07:34:12;;;;;;;20.75;13.30;;;9.80;69.70;;;;;;5053435;28;20041;-73
2022/12/04 07:36:39;;;;;;;19.95;13.73;;;9.90;69.50;;;;;;5039902;28;20063;-73
2022/12/04 07:39:08;;;;;;;19.23;12.77;;;10.00;69.30;;;;;;5057568;28;20057;-73
2022/12/04 07:41:39;;;;;;;19.38;13.05;;;10.00;69.20;;;;;;5039726;28;20473;-73
2022/12/04 07:44:05;;;;;;;25.50;15.57;;;10.10;69.10;;;;;;5056136;28;20073;-73
2022/12/04 07:46:31;;;;;;;23.30;14.77;;;10.10;68.80;;;;;;5057793;28;20504;-73
2022/12/04 07:48:58;;;;;;;23.92;16.02;;;10.10;68.60;;;;;;5072026;28;20380;-73
2022/12/04 07:51:26;;;;;;;29.55;17.33;;;10.10;68.50;;;;;;5059246;28;20021;-73
2022/12/04 07:53:53;;;;;;;22.30;15.40;;;10.10;68.10;;;;;;5059351;28;20039;-73
2022/12/04 07:56:21;;;;;;;27.33;17.25;;;10.10;68.20;;;;;;5058325;28;20495;-73
2022/12/04 07:58:50;;;;;;;29.52;18.20;;;10.10;68.10;;;;;;5057054;28;20040;-73
2022/12/04 08:01:22;;;;;;;28.02;16.73;;;10.20;68.10;;;;;;5038708;28;20381;-73
2022/12/04 08:03:56;;;;;;;20.33;13.63;;;10.20;68.10;;;;;;5056800;28;20036;-73
2022/12/04 08:06:27;;;;;;;24.48;16.17;;;10.30;68.10;;;;;;5057028;28;20025;-73
2022/12/04 08:08:56;;;;;;;21.75;14.85;;;10.30;67.80;;;;;;5056729;28;20071;-73
2022/12/04 08:11:24;;;;;;;20.75;13.18;;;10.30;67.60;;;;;;5047037;28;20391;-73
2022/12/04 08:13:54;;;;;;;19.73;13.32;;;10.40;67.30;;;;;;5076436;28;20467;-73
2022/12/04 08:16:20;;;;;;;17.63;12.05;;;10.40;67.20;;;;;;5076571;28;20024;-73
2022/12/04 08:18:49;;;;;;;16.52;11.80;;;10.50;67.10;;;;;;5076769;28;20029;-73
2022/12/04 08:21:19;;;;;;;16.52;11.07;;;10.50;66.90;;;;;;5076783;28;20021;-72
2022/12/04 08:23:46;;;;;;;18.10;12.45;;;10.50;66.80;;;;;;5076474;28;20484;-73
2022/12/04 08:26:14;;;;;;;18.90;12.55;;;10.50;66.70;;;;;;5063035;28;20039;-73
2022/12/04 08:28:40;;;;;;;16.75;11.40;;;10.50;66.60;;;;;;5076148;28;20021;-73
2022/12/04 08:31:16;;;;;;;16.25;11.93;;;10.60;66.70;;;;;;5076620;28;20025;-73
2022/12/04 08:33:43;;;;;;;19.27;11.77;;;10.60;66.60;;;;;;5076228;28;20060;-73
2022/12/04 08:36:15;;;;;;;18.48;11.93;;;10.70;66.60;;;;;;5076156;28;20473;-73
2022/12/04 08:38:41;;;;;;;15.30;10.85;;;10.70;66.40;;;;;;5056452;28;20041;-73
2022/12/04 08:41:11;;;;;;;15.27;10.48;;;10.70;66.40;;;;;;5076486;28;20021;-73
2022/12/04 08:43:37;;;;;;;14.55;10.43;;;10.80;66.40;;;;;;5075595;28;20089;-73
2022/12/04 08:46:09;;;;;;;13.93;10.23;;;10.90;66.50;;;;;;5058104;28;20075;-73
2022/12/04 08:48:35;;;;;;;13.90;10.15;;;11.00;66.60;;;;;;5075916;28;20051;-73
2022/12/04 08:51:06;;;;;;;15.00;10.30;;;11.10;66.70;;;;;;5076211;28;20016;-74
2022/12/04 08:53:32;;;;;;;14.90;10.43;;;11.10;66.40;;;;;;5069109;28;20032;-73
2022/12/04 08:56:02;;;;;;;14.30;10.43;;;11.20;66.50;;;;;;5038231;28;20021;-73
2022/12/04 08:58:31;;;;;;;13.57;9.48;;;11.30;66.40;;;;;;5054775;28;20036;-73
2022/12/04 09:01:17;;;;;;;15.23;9.75;;;11.50;66.50;;;;;;5065181;28;20405;-73
2022/12/04 09:03:47;;;;;;;13.98;9.93;;;11.60;65.90;;;;;;5037654;28;20033;-72
2022/12/04 09:06:16;;;;;;;14.07;10.15;;;11.70;65.50;;;;;;5055751;28;20028;-72
2022/12/04 09:08:43;;;;;;;13.15;8.93;;;11.70;64.70;;;;;;5038097;28;20507;-72
2022/12/04 09:11:20;;;;;;;15.25;9.70;;;11.80;64.60;;;;;;5021513;28;20033;-71
2022/12/04 09:13:50;;;;;;;12.73;9.45;;;11.90;64.40;;;;;;5063776;28;20055;-71
2022/12/04 09:16:20;;;;;;;11.98;8.88;;;12.00;64.20;;;;;;5057521;28;20465;-71
2022/12/04 09:18:47;;;;;;;15.05;10.93;;;12.10;64.40;;;;;;5075217;28;20104;-71
2022/12/04 09:21:15;;;;;;;13.23;9.93;;;12.20;64.60;;;;;;5075193;28;20029;-74
2022/12/04 09:23:45;;;;;;;13.65;9.52;;;12.20;64.10;;;;;;5075368;28;20033;-72
2022/12/04 09:26:32;;;;;;;12.90;9.07;;;12.30;64.30;;;;;;5075468;28;20094;-72
2022/12/04 09:29:00;;;;;;;23.98;14.35;;;12.40;64.40;;;;;;5075401;28;20025;-72
2022/12/04 09:31:26;;;;;;;12.57;9.15;;;12.50;63.90;;;;;;5075278;28;20107;-73
2022/12/04 09:33:53;;;;;;;13.35;9.80;;;12.50;63.50;;;;;;5075005;28;20035;-74
2022/12/04 09:36:19;;;;;;;17.33;11.23;;;12.60;63.40;;;;;;5074940;28;20029;-73
2022/12/04 09:38:48;;;;;;;15.60;10.32;;;12.60;62.80;;;;;;5047936;28;20102;-73
2022/12/04 09:41:24;;;;;;;18.52;11.93;;;12.70;62.70;;;;;;5055103;28;20377;-73
2022/12/04 09:43:56;;;;;;;15.93;10.57;;;12.70;62.70;;;;;;5037071;28;20384;-73
2022/12/04 09:46:29;;;;;;;12.90;9.40;;;12.70;61.80;;;;;;5037115;28;20056;-72
2022/12/04 09:49:00;;;;;;;11.65;8.85;;;12.70;61.50;;;;;;5068226;28;20047;-71
2022/12/04 09:51:27;;;;;;;13.55;10.05;;;12.70;61.60;;;;;;5057018;28;20035;-72
2022/12/04 09:53:59;;;;;;;15.65;9.52;;;12.80;61.50;;;;;;5074625;28;20383;-72
2022/12/04 09:56:28;;;;;;;14.10;9.48;;;12.80;61.80;;;;;;5074352;28;20535;-73
2022/12/04 09:59:03;;;;;;;14.07;9.95;;;12.80;61.50;;;;;;5054198;28;20036;-72
2022/12/04 10:01:39;;;;;;;15.77;10.65;;;12.80;61.20;;;;;;5054307;28;20040;-72
2022/12/04 10:04:05;;;;;;;19.08;12.45;;;12.80;61.00;;;;;;5054799;28;20401;-72
2022/12/04 10:06:51;;;;;;;13.57;9.80;;;12.90;61.00;;;;;;5054487;28;20025;-72
2022/12/04 10:09:33;;;;;;;15.02;10.68;;;12.90;61.10;;;;;;5054973;28;20021;-72
2022/12/04 10:12:05;;;;;;;14.35;9.88;;;12.90;60.60;;;;;;5054675;28;20021;-73
2022/12/04 10:15:04;;;;;;;15.05;11.05;;;13.00;60.70;;;;;;5054307;28;20021;-72
2022/12/04 10:17:40;;;;;;;22.10;11.75;;;13.00;60.50;;;;;;5036585;28;20025;-72
2022/12/04 10:20:37;;;;;;;18.75;12.07;;;13.00;60.30;;;;;;5036553;28;20044;-72
2022/12/04 10:23:27;;;;;;;17.60;11.23;;;13.10;60.40;;;;;;5036491;28;20059;-72
2022/12/04 10:25:54;;;;;;;19.58;13.15;;;13.10;60.50;;;;;;5054379;28;20067;-72
2022/12/04 10:28:29;;;;;;;23.17;13.38;;;13.10;60.20;;;;;;5054325;28;20507;-72
2022/12/04 10:31:00;;;;;;;17.15;11.77;;;13.10;60.20;;;;;;5073988;28;20028;-72
2022/12/04 10:33:35;;;;;;;19.23;12.13;;;13.10;60.20;;;;;;5074214;28;20086;-72
2022/12/04 10:36:01;;;;;;;18.63;12.25;;;13.10;60.20;;;;;;5074120;28;20020;-72
2022/12/04 10:38:44;;;;;;;19.92;12.85;;;13.20;59.80;;;;;;5073508;28;20108;-72
2022/12/04 10:41:32;;;;;;;18.13;11.82;;;13.20;59.60;;;;;;5074154;28;20024;-72
2022/12/04 10:43:58;;;;;;;19.67;13.38;;;13.30;59.70;;;;;;5072375;28;20086;-73
2022/12/04 10:46:32;;;;;;;19.17;13.05;;;13.30;59.30;;;;;;5072866;28;20476;-72
2022/12/04 10:49:05;;;;;;;19.20;13.45;;;13.30;59.30;;;;;;5073434;28;20055;-72
2022/12/04 10:51:41;;;;;;;21.02;13.90;;;13.40;59.40;;;;;;5073763;28;20102;-72
2022/12/04 10:54:34;;;;;;;21.63;13.27;;;13.50;59.40;;;;;;5055720;28;20447;-72
2022/12/04 10:57:12;;;;;;;22.75;14.43;;;13.60;59.40;;;;;;5055556;28;20387;-72
2022/12/04 10:59:59;;;;;;;18.98;12.50;;;13.60;58.80;;;;;;5071227;28;20052;-72
2022/12/04 11:02:30;;;;;;;23.15;14.80;;;13.70;58.80;;;;;;5072947;28;20045;-72
2022/12/04 11:05:05;;;;;;;21.63;14.75;;;13.70;58.70;;;;;;5055847;28;20594;-72
2022/12/04 11:07:44;;;;;;;21.98;11.82;;;13.80;58.50;;;;;;5069520;28;20063;-73
2022/12/04 11:10:30;;;;;;;19.02;12.90;;;13.80;58.00;;;;;;5060705;28;20048;-73
2022/12/04 11:13:00;;;;;;;17.65;11.63;;;13.70;57.90;;;;;;5073037;28;20051;-72
2022/12/04 11:15:26;;;;;;;21.77;13.23;;;13.70;58.70;;;;;;5055299;28;20468;-72
2022/12/04 11:17:52;;;;;;;25.42;15.93;;;13.70;58.00;;;;;;5073457;28;20051;-72
2022/12/04 11:20:26;;;;;;;26.27;15.88;;;13.70;58.10;;;;;;5042034;28;20040;-72
2022/12/04 11:22:55;;;;;;;21.42;14.32;;;13.60;58.00;;;;;;5062874;28;20032;-72
2022/12/04 11:25:27;;;;;;;23.15;13.60;;;13.50;58.00;;;;;;5041222;28;20040;-72
2022/12/04 11:27:58;;;;;;;23.65;15.60;;;13.50;58.20;;;;;;5070204;28;20128;-72
2022/12/04 11:30:35;;;;;;;27.05;16.38;;;13.50;58.40;;;;;;5055393;28;20104;-72
2022/12/04 11:33:07;;;;;;;27.27;16.15;;;13.50;58.60;;;;;;5073416;28;20024;-72
2022/12/04 11:35:33;;;;;;;26.23;16.67;;;13.50;58.70;;;;;;5055608;28;20031;-72
2022/12/04 11:38:14;;;;;;;20.77;14.10;;;13.50;58.60;;;;;;5055243;28;20127;-72
2022/12/04 11:40:55;;;;;;;26.52;16.40;;;13.50;58.30;;;;;;5073340;28;20078;-72
2022/12/04 11:43:25;;;;;;;21.67;14.23;;;13.40;58.20;;;;;;5073271;28;20115;-72
2022/12/04 11:45:58;;;;;;;24.25;15.05;;;13.40;58.30;;;;;;5073162;28;20036;-72
2022/12/04 11:48:25;;;;;;;23.20;14.63;;;13.40;58.40;;;;;;5053515;28;20025;-72
2022/12/04 11:51:13;;;;;;;24.77;15.85;;;13.40;58.50;;;;;;5067420;28;20044;-72
2022/12/04 11:53:51;;;;;;;25.42;15.50;;;13.40;58.40;;;;;;5048585;28;20093;-71
2022/12/04 11:56:23;;;;;;;25.80;16.00;;;13.40;58.50;;;;;;5058050;28;20020;-72
2022/12/04 11:59:30;;;;;;;24.05;14.88;;;13.40;58.50;;;;;;5069926;28;20024;-72
2022/12/04 12:02:43;;;;;;;26.55;15.50;;;13.40;58.50;;;;;;5082088;28;20503;-72
2022/12/04 12:05:46;;;;;;;22.05;14.80;;;13.40;58.60;;;;;;5054899;28;20042;-72
2022/12/04 12:08:11;;;;;;;20.23;13.43;;;13.40;58.50;;;;;;5071926;28;20503;-72
2022/12/04 12:10:59;;;;;;;27.75;16.48;;;13.40;58.60;;;;;;5052109;28;20025;-72
2022/12/04 12:13:33;;;;;;;28.85;17.67;;;13.40;58.40;;;;;;5053142;28;20029;-72
2022/12/04 12:16:22;;;;;;;22.80;14.95;;;13.30;58.20;;;;;;5054200;28;20159;-72
2022/12/04 12:19:08;;;;;;;21.67;14.10;;;13.30;58.30;;;;;;5038798;28;20021;-72
2022/12/04 12:21:42;;;;;;;23.73;14.35;;;13.30;58.50;;;;;;5074373;28;20021;-72
2022/12/04 12:24:28;;;;;;;29.38;16.55;;;13.30;58.50;;;;;;5042877;28;20033;-72
2022/12/04 12:27:18;;;;;;;24.63;15.98;;;13.30;58.50;;;;;;5060220;28;20029;-72
2022/12/04 12:30:02;;;;;;;28.27;15.38;;;13.30;58.40;;;;;;5046111;28;20032;-72
2022/12/04 12:32:58;;;;;;;24.38;15.68;;;13.20;58.40;;;;;;5075546;28;20116;-72
2022/12/04 12:35:35;;;;;;;23.88;15.05;;;13.20;58.30;;;;;;5064173;28;20032;-72
2022/12/04 12:38:13;;;;;;;20.02;13.23;;;13.20;58.40;;;;;;5061626;28;20025;-72
2022/12/04 12:41:00;;;;;;;24.20;15.43;;;13.10;58.50;;;;;;5057387;28;20078;-72
2022/12/04 12:43:38;;;;;;;23.75;15.55;;;13.10;58.50;;;;;;5074462;28;20044;-72
2022/12/04 12:46:14;;;;;;;26.42;15.23;;;13.10;58.60;;;;;;5075193;28;20467;-72
2022/12/04 12:49:05;;;;;;;25.08;15.20;;;13.10;58.60;;;;;;5051922;28;20071;-72
2022/12/04 12:52:22;;;;;;;23.48;14.98;;;13.10;58.60;;;;;;5054373;28;20046;-73
2022/12/04 12:54:54;;;;;;;31.17;18.92;;;13.10;58.50;;;;;;4977440;28;20058;-72
2022/12/04 12:57:35;;;;;;;27.83;17.02;;;13.10;58.50;;;;;;4991665;28;20088;-72
2022/12/04 13:00:18;;;;;;;25.83;16.38;;;13.10;58.50;;;;;;4988054;28;20082;-72
2022/12/04 13:03:25;;;;;;;23.10;14.60;;;13.00;58.50;;;;;;4976890;28;20544;-72
2022/12/04 13:05:59;;;;;;;23.77;15.73;;;13.00;58.70;;;;;;4941521;29;20058;-72
2022/12/04 13:08:49;;;;;;;23.08;14.63;;;13.00;58.60;;;;;;4973969;28;20506;-72
2022/12/04 13:11:22;;;;;;;21.38;13.52;;;13.00;59.30;;;;;;5002957;28;20419;-72
2022/12/04 13:13:57;;;;;;;22.85;14.02;;;12.90;58.70;;;;;;4970549;28;20114;-72
2022/12/04 13:16:35;;;;;;;23.45;14.90;;;12.90;58.70;;;;;;4992799;28;20027;-72
2022/12/04 13:19:12;;;;;;;22.55;14.18;;;12.90;58.70;;;;;;4969314;28;20107;-72